Berwyn, Canada
Current Conditions -  °F | °C
As of 6:00 AM on Friday 31 Oct 2014 (Local Time) from CYPE Reporting Station
Few Clouds Few Clouds  
Wind Chill: 25°   Ceiling: Unl
Heat Index: 30°   Visibility: 15mi
Dew Point: 28°   Wind: 5mph
Humidity: 93%   Direction: 100°E
Pressure: 29.56"   Gusts: NA
Location:  56.15°N, 117.75°W
Report Text: CYPE 311200Z 10004KT 15SM FEW100 M01/M02 A2956 RMK AC2 SLP036
Loading
Personal Weather Stations






























Interactive Weather Map
Tropical Storm Tracking
New forecast layout! Learn more

10-Day Weather Forecast

Advertisements
Track Severe Weather on mobile